sensor_id;sensor_type;location;lat;lon;timestamp;noise_LAeq;noise_LA_min;noise_LA_max;noise_LA01;noise_LA95
83034;Laerm;72848;52.216;5.616;2024-03-02T00:02:06;43.71;37.94;52.99;;
83034;Laerm;72848;52.216;5.616;2024-03-02T00:04:34;41.62;37.66;48.27;;
83034;Laerm;72848;52.216;5.616;2024-03-02T00:07:03;42.84;37.73;47.82;;
83034;Laerm;72848;52.216;5.616;2024-03-02T00:09:34;44.64;40.27;49.91;;
83034;Laerm;72848;52.216;5.616;2024-03-02T00:12:04;46.25;40.22;52.85;;
83034;Laerm;72848;52.216;5.616;2024-03-02T00:14:33;41.53;36.23;47.69;;
83034;Laerm;72848;52.216;5.616;2024-03-02T00:17:01;40.63;36.38;47.69;;
83034;Laerm;72848;52.216;5.616;2024-03-02T00:19:30;41.75;35.81;52.53;;
83034;Laerm;72848;52.216;5.616;2024-03-02T00:22:00;38.77;35.83;43.80;;
83034;Laerm;72848;52.216;5.616;2024-03-02T00:24:30;44.35;36.14;53.59;;
83034;Laerm;72848;52.216;5.616;2024-03-02T00:27:03;42.97;36.11;51.69;;
83034;Laerm;72848;52.216;5.616;2024-03-02T00:29:32;42.34;36.60;48.12;;
83034;Laerm;72848;52.216;5.616;2024-03-02T00:32:01;41.28;35.64;48.65;;
83034;Laerm;72848;52.216;5.616;2024-03-02T00:34:29;41.36;36.05;54.55;;
83034;Laerm;72848;52.216;5.616;2024-03-02T00:36:58;39.11;34.61;48.33;;
83034;Laerm;72848;52.216;5.616;2024-03-02T00:39:27;40.77;34.39;53.24;;
83034;Laerm;72848;52.216;5.616;2024-03-02T00:41:56;39.45;34.40;54.72;;
83034;Laerm;72848;52.216;5.616;2024-03-02T00:44:27;41.98;36.79;48.18;;
83034;Laerm;72848;52.216;5.616;2024-03-02T00:46:56;41.78;34.77;51.72;;
83034;Laerm;72848;52.216;5.616;2024-03-02T00:49:24;40.65;34.18;48.23;;
83034;Laerm;72848;52.216;5.616;2024-03-02T00:51:53;41.01;35.52;47.94;;
83034;Laerm;72848;52.216;5.616;2024-03-02T00:54:22;36.69;33.43;42.28;;
83034;Laerm;72848;52.216;5.616;2024-03-02T00:56:51;37.42;33.97;46.49;;
83034;Laerm;72848;52.216;5.616;2024-03-02T00:59:20;42.32;35.97;50.65;;
83034;Laerm;72848;52.216;5.616;2024-03-02T01:01:51;43.85;36.93;53.02;;
83034;Laerm;72848;52.216;5.616;2024-03-02T01:04:20;44.52;38.84;52.34;;
83034;Laerm;72848;52.216;5.616;2024-03-02T01:06:48;41.70;36.38;48.73;;
83034;Laerm;72848;52.216;5.616;2024-03-02T01:09:17;43.37;35.89;51.95;;
83034;Laerm;72848;52.216;5.616;2024-03-02T01:11:45;43.45;36.81;53.82;;
83034;Laerm;72848;52.216;5.616;2024-03-02T01:14:14;45.59;39.66;53.14;;
83034;Laerm;72848;52.216;5.616;2024-03-02T01:16:42;44.53;35.49;54.42;;
83034;Laerm;72848;52.216;5.616;2024-03-02T01:19:14;37.80;34.68;42.06;;
83034;Laerm;72848;52.216;5.616;2024-03-02T01:21:43;37.88;33.10;43.47;;
83034;Laerm;72848;52.216;5.616;2024-03-02T01:24:11;36.46;32.19;45.56;;
83034;Laerm;72848;52.216;5.616;2024-03-02T01:26:40;35.73;31.18;43.64;;
83034;Laerm;72848;52.216;5.616;2024-03-02T01:29:08;33.27;31.06;38.17;;
83034;Laerm;72848;52.216;5.616;2024-03-02T01:31:37;38.52;32.29;46.12;;
83034;Laerm;72848;52.216;5.616;2024-03-02T01:34:05;38.04;32.37;45.18;;
83034;Laerm;72848;52.216;5.616;2024-03-02T01:36:37;33.04;30.81;37.22;;
83034;Laerm;72848;52.216;5.616;2024-03-02T01:39:05;42.30;31.80;51.90;;
83034;Laerm;72848;52.216;5.616;2024-03-02T01:41:33;34.24;31.01;39.43;;
83034;Laerm;72848;52.216;5.616;2024-03-02T01:44:02;36.57;29.95;43.68;;
83034;Laerm;72848;52.216;5.616;2024-03-02T01:46:31;36.90;31.19;42.19;;
83034;Laerm;72848;52.216;5.616;2024-03-02T01:48:59;34.18;29.59;43.48;;
83034;Laerm;72848;52.216;5.616;2024-03-02T01:51:27;31.00;29.21;34.71;;
83034;Laerm;72848;52.216;5.616;2024-03-02T01:53:58;32.59;29.88;40.04;;
83034;Laerm;72848;52.216;5.616;2024-03-02T01:56:27;32.76;30.05;37.67;;
83034;Laerm;72848;52.216;5.616;2024-03-02T01:58:55;35.19;30.56;41.27;;
83034;Laerm;72848;52.216;5.616;2024-03-02T02:01:24;33.15;29.95;42.70;;
83034;Laerm;72848;52.216;5.616;2024-03-02T02:03:52;31.49;29.27;39.24;;
83034;Laerm;72848;52.216;5.616;2024-03-02T02:06:20;32.05;29.79;39.72;;
83034;Laerm;72848;52.216;5.616;2024-03-02T02:08:49;36.00;31.10;43.29;;
83034;Laerm;72848;52.216;5.616;2024-03-02T02:11:20;35.51;30.11;43.91;;
83034;Laerm;72848;52.216;5.616;2024-03-02T02:13:49;32.44;29.60;44.67;;
83034;Laerm;72848;52.216;5.616;2024-03-02T02:16:17;31.78;29.51;37.90;;
83034;Laerm;72848;52.216;5.616;2024-03-02T02:18:45;31.06;29.48;34.28;;
83034;Laerm;72848;52.216;5.616;2024-03-02T02:21:14;31.66;29.60;38.36;;
83034;Laerm;72848;52.216;5.616;2024-03-02T02:23:45;33.24;29.78;39.42;;
83034;Laerm;72848;52.216;5.616;2024-03-02T02:26:13;30.96;29.38;39.43;;
83034;Laerm;72848;52.216;5.616;2024-03-02T02:28:42;32.28;29.88;37.81;;
83034;Laerm;72848;52.216;5.616;2024-03-02T02:31:11;31.73;29.46;37.51;;
83034;Laerm;72848;52.216;5.616;2024-03-02T02:33:39;31.36;29.38;34.97;;
83034;Laerm;72848;52.216;5.616;2024-03-02T02:36:08;32.72;29.89;38.79;;
83034;Laerm;72848;52.216;5.616;2024-03-02T02:38:37;34.90;30.51;46.98;;
83034;Laerm;72848;52.216;5.616;2024-03-02T02:41:09;34.92;30.81;45.61;;
83034;Laerm;72848;52.216;5.616;2024-03-02T02:43:38;35.84;30.04;41.99;;
83034;Laerm;72848;52.216;5.616;2024-03-02T02:46:06;35.08;30.60;45.96;;
83034;Laerm;72848;52.216;5.616;2024-03-02T02:48:35;38.36;32.91;44.99;;
83034;Laerm;72848;52.216;5.616;2024-03-02T02:51:03;38.81;34.52;49.96;;
83034;Laerm;72848;52.216;5.616;2024-03-02T02:53:32;37.79;34.33;43.69;;
83034;Laerm;72848;52.216;5.616;2024-03-02T02:56:00;39.00;31.94;45.22;;
83034;Laerm;72848;52.216;5.616;2024-03-02T02:58:32;33.47;31.36;38.44;;
83034;Laerm;72848;52.216;5.616;2024-03-02T03:01:00;33.32;30.75;37.46;;
83034;Laerm;72848;52.216;5.616;2024-03-02T03:03:28;33.15;30.12;41.44;;
83034;Laerm;72848;52.216;5.616;2024-03-02T03:05:57;38.03;34.15;47.65;;
83034;Laerm;72848;52.216;5.616;2024-03-02T03:08:26;37.08;32.10;50.68;;
83034;Laerm;72848;52.216;5.616;2024-03-02T03:10:54;33.57;30.79;38.73;;
83034;Laerm;72848;52.216;5.616;2024-03-02T03:13:23;34.73;32.01;40.97;;
83034;Laerm;72848;52.216;5.616;2024-03-02T03:15:54;36.93;32.15;41.30;;
83034;Laerm;72848;52.216;5.616;2024-03-02T03:18:23;38.15;33.41;47.82;;
83034;Laerm;72848;52.216;5.616;2024-03-02T03:20:51;34.54;31.07;45.79;;
83034;Laerm;72848;52.216;5.616;2024-03-02T03:23:20;33.37;30.78;38.29;;
83034;Laerm;72848;52.216;5.616;2024-03-02T03:25:48;35.49;31.44;53.51;;
83034;Laerm;72848;52.216;5.616;2024-03-02T03:28:16;35.15;32.71;42.15;;
83034;Laerm;72848;52.216;5.616;2024-03-02T03:30:45;35.28;31.35;41.12;;
83034;Laerm;72848;52.216;5.616;2024-03-02T03:33:16;33.32;30.32;46.73;;
83034;Laerm;72848;52.216;5.616;2024-03-02T03:35:44;31.36;29.14;35.49;;
83034;Laerm;72848;52.216;5.616;2024-03-02T03:38:13;31.52;29.27;37.26;;
83034;Laerm;72848;52.216;5.616;2024-03-02T03:40:41;33.36;29.41;42.17;;
83034;Laerm;72848;52.216;5.616;2024-03-02T03:43:10;30.82;29.36;34.90;;
83034;Laerm;72848;52.216;5.616;2024-03-02T03:45:38;33.45;29.39;42.48;;
83034;Laerm;72848;52.216;5.616;2024-03-02T03:48:07;31.02;29.16;38.75;;
83034;Laerm;72848;52.216;5.616;2024-03-02T03:50:39;32.08;29.19;37.41;;
83034;Laerm;72848;52.216;5.616;2024-03-02T03:53:07;30.61;29.23;38.60;;
83034;Laerm;72848;52.216;5.616;2024-03-02T03:55:35;33.36;29.70;40.23;;
83034;Laerm;72848;52.216;5.616;2024-03-02T03:58:04;32.47;29.77;38.25;;
83034;Laerm;72848;52.216;5.616;2024-03-02T04:00:32;31.53;29.57;35.93;;
83034;Laerm;72848;52.216;5.616;2024-03-02T04:03:01;32.14;29.56;40.01;;
83034;Laerm;72848;52.216;5.616;2024-03-02T04:05:29;31.77;29.60;44.96;;
83034;Laerm;72848;52.216;5.616;2024-03-02T04:08:00;34.17;29.62;43.05;;
83034;Laerm;72848;52.216;5.616;2024-03-02T04:10:29;32.92;29.71;38.39;;
83034;Laerm;72848;52.216;5.616;2024-03-02T04:12:57;33.16;30.35;40.77;;
83034;Laerm;72848;52.216;5.616;2024-03-02T04:15:26;32.09;30.02;39.70;;
83034;Laerm;72848;52.216;5.616;2024-03-02T04:17:55;32.76;29.85;42.18;;
83034;Laerm;72848;52.216;5.616;2024-03-02T04:20:23;31.59;29.67;38.70;;
83034;Laerm;72848;52.216;5.616;2024-03-02T04:22:52;32.62;30.23;38.56;;
83034;Laerm;72848;52.216;5.616;2024-03-02T04:25:23;34.29;30.19;42.54;;
83034;Laerm;72848;52.216;5.616;2024-03-02T04:27:51;32.32;29.84;43.20;;
83034;Laerm;72848;52.216;5.616;2024-03-02T04:30:20;33.51;30.42;40.78;;
83034;Laerm;72848;52.216;5.616;2024-03-02T04:32:49;33.81;30.00;45.23;;
83034;Laerm;72848;52.216;5.616;2024-03-02T04:35:17;31.94;29.89;40.41;;
83034;Laerm;72848;52.216;5.616;2024-03-02T04:37:47;32.85;30.08;41.13;;
83034;Laerm;72848;52.216;5.616;2024-03-02T04:40:15;37.74;30.81;54.49;;
83034;Laerm;72848;52.216;5.616;2024-03-02T04:42:46;32.12;29.81;38.79;;
83034;Laerm;72848;52.216;5.616;2024-03-02T04:45:15;32.88;29.87;41.76;;
83034;Laerm;72848;52.216;5.616;2024-03-02T04:47:43;37.02;31.22;48.43;;
83034;Laerm;72848;52.216;5.616;2024-03-02T04:50:12;37.96;30.21;50.80;;
83034;Laerm;72848;52.216;5.616;2024-03-02T04:52:41;34.53;30.41;41.75;;
83034;Laerm;72848;52.216;5.616;2024-03-02T04:55:09;32.57;30.04;42.69;;
83034;Laerm;72848;52.216;5.616;2024-03-02T04:57:37;36.37;30.39;44.54;;
83034;Laerm;72848;52.216;5.616;2024-03-02T05:00:10;36.51;30.42;48.82;;
83034;Laerm;72848;52.216;5.616;2024-03-02T05:02:38;35.60;30.68;48.40;;
83034;Laerm;72848;52.216;5.616;2024-03-02T05:05:07;34.29;30.87;39.95;;
83034;Laerm;72848;52.216;5.616;2024-03-02T05:07:36;35.22;30.00;43.96;;
83034;Laerm;72848;52.216;5.616;2024-03-02T05:10:05;33.09;30.06;39.81;;
83034;Laerm;72848;52.216;5.616;2024-03-02T05:12:34;35.73;31.09;51.27;;
83034;Laerm;72848;52.216;5.616;2024-03-02T05:15:03;34.12;30.28;40.62;;
83034;Laerm;72848;52.216;5.616;2024-03-02T05:17:34;32.58;30.13;37.57;;
83034;Laerm;72848;52.216;5.616;2024-03-02T05:20:03;37.28;30.63;54.65;;
83034;Laerm;72848;52.216;5.616;2024-03-02T05:22:32;34.28;30.15;44.38;;
83034;Laerm;72848;52.216;5.616;2024-03-02T05:25:00;34.56;30.71;38.68;;
83034;Laerm;72848;52.216;5.616;2024-03-02T05:27:29;37.87;31.48;43.87;;
83034;Laerm;72848;52.216;5.616;2024-03-02T05:29:57;36.35;31.10;55.08;;
83034;Laerm;72848;52.216;5.616;2024-03-02T05:32:26;46.53;33.17;61.67;;
83034;Laerm;72848;52.216;5.616;2024-03-02T05:34:57;48.35;33.40;61.79;;
83034;Laerm;72848;52.216;5.616;2024-03-02T05:37:25;49.15;33.77;65.53;;
83034;Laerm;72848;52.216;5.616;2024-03-02T05:39:55;49.80;33.90;62.40;;
83034;Laerm;72848;52.216;5.616;2024-03-02T05:42:24;47.47;36.08;57.48;;
83034;Laerm;72848;52.216;5.616;2024-03-02T05:44:52;48.03;34.72;58.48;;
83034;Laerm;72848;52.216;5.616;2024-03-02T05:47:21;48.79;35.04;58.55;;
83034;Laerm;72848;52.216;5.616;2024-03-02T05:49:49;48.93;34.43;60.51;;
83034;Laerm;72848;52.216;5.616;2024-03-02T05:52:20;48.92;33.96;61.10;;
83034;Laerm;72848;52.216;5.616;2024-03-02T05:54:49;48.46;33.32;61.06;;
83034;Laerm;72848;52.216;5.616;2024-03-02T05:57:18;48.04;34.42;58.69;;
83034;Laerm;72848;52.216;5.616;2024-03-02T05:59:47;51.21;33.18;70.99;;
83034;Laerm;72848;52.216;5.616;2024-03-02T06:02:15;57.14;34.20;69.46;;
83034;Laerm;72848;52.216;5.616;2024-03-02T06:04:44;56.88;34.05;69.82;;
83034;Laerm;72848;52.216;5.616;2024-03-02T06:07:13;48.64;34.90;67.82;;
83034;Laerm;72848;52.216;5.616;2024-03-02T06:09:44;45.71;32.61;59.72;;
83034;Laerm;72848;52.216;5.616;2024-03-02T06:12:13;46.57;32.62;59.27;;
83034;Laerm;72848;52.216;5.616;2024-03-02T06:14:41;45.87;33.40;59.46;;
83034;Laerm;72848;52.216;5.616;2024-03-02T06:17:09;46.57;34.40;59.44;;
83034;Laerm;72848;52.216;5.616;2024-03-02T06:19:38;51.54;33.12;70.83;;
83034;Laerm;72848;52.216;5.616;2024-03-02T06:22:07;49.48;33.96;68.68;;
83034;Laerm;72848;52.216;5.616;2024-03-02T06:24:35;51.74;35.70;63.86;;
83034;Laerm;72848;52.216;5.616;2024-03-02T06:27:07;51.52;35.41;63.40;;
83034;Laerm;72848;52.216;5.616;2024-03-02T06:29:35;51.09;34.75;65.12;;
83034;Laerm;72848;52.216;5.616;2024-03-02T06:32:03;49.16;34.97;62.51;;
83034;Laerm;72848;52.216;5.616;2024-03-02T06:34:32;47.78;35.75;61.17;;
83034;Laerm;72848;52.216;5.616;2024-03-02T06:37:00;50.32;35.68;68.49;;
83034;Laerm;72848;52.216;5.616;2024-03-02T06:39:29;44.72;33.66;57.30;;
83034;Laerm;72848;52.216;5.616;2024-03-02T06:41:57;45.84;34.46;55.49;;
83034;Laerm;72848;52.216;5.616;2024-03-02T06:44:28;47.43;35.47;67.65;;
83034;Laerm;72848;52.216;5.616;2024-03-02T06:46:57;45.48;35.54;57.48;;
83034;Laerm;72848;52.216;5.616;2024-03-02T06:49:25;45.62;35.86;59.46;;
83034;Laerm;72848;52.216;5.616;2024-03-02T06:51:54;44.69;35.02;56.55;;
83034;Laerm;72848;52.216;5.616;2024-03-02T06:54:22;44.28;36.57;59.57;;
83034;Laerm;72848;52.216;5.616;2024-03-02T06:56:52;45.35;35.54;67.71;;
83034;Laerm;72848;52.216;5.616;2024-03-02T06:59:20;56.21;36.61;68.40;;
83034;Laerm;72848;52.216;5.616;2024-03-02T07:01:51;54.93;35.16;67.80;;
83034;Laerm;72848;52.216;5.616;2024-03-02T07:04:20;52.52;34.57;67.02;;
83034;Laerm;72848;52.216;5.616;2024-03-02T07:06:49;49.20;35.50;65.60;;
83034;Laerm;72848;52.216;5.616;2024-03-02T07:09:17;54.31;35.55;70.04;;
83034;Laerm;72848;52.216;5.616;2024-03-02T07:11:46;53.57;34.96;69.33;;
83034;Laerm;72848;52.216;5.616;2024-03-02T07:14:15;46.15;32.65;56.31;;
83034;Laerm;72848;52.216;5.616;2024-03-02T07:16:43;47.27;32.81;61.73;;
83034;Laerm;72848;52.216;5.616;2024-03-02T07:19:15;53.30;34.36;68.49;;
83034;Laerm;72848;52.216;5.616;2024-03-02T07:21:43;53.34;35.60;66.12;;
83034;Laerm;72848;52.216;5.616;2024-03-02T07:24:12;52.40;35.64;67.93;;
83034;Laerm;72848;52.216;5.616;2024-03-02T07:26:41;46.23;35.97;61.12;;
83034;Laerm;72848;52.216;5.616;2024-03-02T07:29:09;47.59;35.63;59.84;;
83034;Laerm;72848;52.216;5.616;2024-03-02T07:31:38;50.50;35.62;64.39;;
83034;Laerm;72848;52.216;5.616;2024-03-02T07:34:06;46.18;34.68;59.98;;
83034;Laerm;72848;52.216;5.616;2024-03-02T07:36:37;45.54;36.04;58.97;;
83034;Laerm;72848;52.216;5.616;2024-03-02T07:39:06;48.72;34.98;62.74;;
83034;Laerm;72848;52.216;5.616;2024-03-02T07:41:36;44.30;35.25;63.19;;
83034;Laerm;72848;52.216;5.616;2024-03-02T07:44:04;45.91;35.98;60.53;;
83034;Laerm;72848;52.216;5.616;2024-03-02T07:46:33;41.73;34.45;52.47;;
83034;Laerm;72848;52.216;5.616;2024-03-02T07:49:01;48.15;35.60;72.75;;
83034;Laerm;72848;52.216;5.616;2024-03-02T07:51:30;43.28;35.15;61.09;;
83034;Laerm;72848;52.216;5.616;2024-03-02T07:54:01;39.60;34.76;56.16;;
83034;Laerm;72848;52.216;5.616;2024-03-02T07:56:30;42.92;35.70;57.36;;
83034;Laerm;72848;52.216;5.616;2024-03-02T07:58:59;47.59;35.89;64.40;;
83034;Laerm;72848;52.216;5.616;2024-03-02T08:01:28;54.36;35.96;67.79;;
83034;Laerm;72848;52.216;5.616;2024-03-02T08:03:56;49.34;36.64;63.02;;
83034;Laerm;72848;52.216;5.616;2024-03-02T08:06:26;48.52;35.65;61.37;;
83034;Laerm;72848;52.216;5.616;2024-03-02T08:08:55;50.50;34.80;62.82;;
83034;Laerm;72848;52.216;5.616;2024-03-02T08:11:27;47.90;35.52;63.73;;
83034;Laerm;72848;52.216;5.616;2024-03-02T08:13:56;55.32;34.37;70.14;;
83034;Laerm;72848;52.216;5.616;2024-03-02T08:16:24;54.85;35.73;68.93;;
83034;Laerm;72848;52.216;5.616;2024-03-02T08:21:25;43.70;36.00;57.77;;
83034;Laerm;72848;52.216;5.616;2024-03-02T08:23:55;42.26;35.21;53.34;;
83034;Laerm;72848;52.216;5.616;2024-03-02T08:26:24;45.58;35.24;66.83;;
83034;Laerm;72848;52.216;5.616;2024-03-02T08:28:55;45.68;34.56;58.13;;
83034;Laerm;72848;52.216;5.616;2024-03-02T08:31:23;43.58;36.63;54.82;;
83034;Laerm;72848;52.216;5.616;2024-03-02T08:33:51;39.97;35.79;54.64;;
83034;Laerm;72848;52.216;5.616;2024-03-02T08:36:20;43.79;34.91;59.75;;
83034;Laerm;72848;52.216;5.616;2024-03-02T08:38:48;50.65;36.32;67.50;;
83034;Laerm;72848;52.216;5.616;2024-03-02T08:41:17;50.50;35.49;66.89;;
83034;Laerm;72848;52.216;5.616;2024-03-02T08:43:46;46.87;34.28;67.20;;
83034;Laerm;72848;52.216;5.616;2024-03-02T08:46:17;39.88;35.48;45.65;;
83034;Laerm;72848;52.216;5.616;2024-03-02T08:48:45;39.64;36.04;51.72;;
83034;Laerm;72848;52.216;5.616;2024-03-02T08:51:14;40.46;36.18;48.23;;
83034;Laerm;72848;52.216;5.616;2024-03-02T08:53:43;40.11;36.36;46.10;;
83034;Laerm;72848;52.216;5.616;2024-03-02T08:56:11;42.08;36.69;50.49;;
83034;Laerm;72848;52.216;5.616;2024-03-02T08:58:40;40.53;35.05;60.65;;
83034;Laerm;72848;52.216;5.616;2024-03-02T09:01:09;40.14;35.15;50.64;;
83034;Laerm;72848;52.216;5.616;2024-03-02T09:03:41;44.73;35.34;60.01;;
83034;Laerm;72848;52.216;5.616;2024-03-02T09:06:10;39.65;35.26;49.51;;
83034;Laerm;72848;52.216;5.616;2024-03-02T09:08:39;40.07;35.41;47.49;;
83034;Laerm;72848;52.216;5.616;2024-03-02T09:11:07;41.01;36.61;50.01;;
83034;Laerm;72848;52.216;5.616;2024-03-02T09:13:36;41.98;36.76;51.31;;
83034;Laerm;72848;52.216;5.616;2024-03-02T09:16:07;41.04;36.44;49.92;;
83034;Laerm;72848;52.216;5.616;2024-03-02T09:18:36;41.45;36.16;49.43;;
83034;Laerm;72848;52.216;5.616;2024-03-02T09:21:08;42.62;36.48;49.15;;
83034;Laerm;72848;52.216;5.616;2024-03-02T09:23:36;60.23;36.01;75.83;;
83034;Laerm;72848;52.216;5.616;2024-03-02T09:26:05;52.17;35.07;70.46;;
83034;Laerm;72848;52.216;5.616;2024-03-02T09:28:33;43.37;38.13;58.44;;
83034;Laerm;72848;52.216;5.616;2024-03-02T09:31:03;45.55;37.26;60.90;;
83034;Laerm;72848;52.216;5.616;2024-03-02T09:33:32;44.40;38.98;58.90;;
83034;Laerm;72848;52.216;5.616;2024-03-02T09:36:00;45.22;36.89;56.63;;
83034;Laerm;72848;52.216;5.616;2024-03-02T09:38:34;40.98;37.04;49.74;;
83034;Laerm;72848;52.216;5.616;2024-03-02T09:41:03;42.83;36.25;52.30;;
83034;Laerm;72848;52.216;5.616;2024-03-02T09:43:31;42.81;37.63;53.12;;
83034;Laerm;72848;52.216;5.616;2024-03-02T09:45:59;41.32;36.89;54.87;;
83034;Laerm;72848;52.216;5.616;2024-03-02T09:48:28;42.59;38.22;50.50;;
83034;Laerm;72848;52.216;5.616;2024-03-02T09:50:57;41.41;37.52;51.26;;
83034;Laerm;72848;52.216;5.616;2024-03-02T09:53:25;41.29;37.60;47.17;;
83034;Laerm;72848;52.216;5.616;2024-03-02T09:56:00;45.82;38.09;64.92;;
83034;Laerm;72848;52.216;5.616;2024-03-02T09:58:28;46.50;37.80;66.84;;
83034;Laerm;72848;52.216;5.616;2024-03-02T10:00:57;41.59;37.05;48.45;;
83034;Laerm;72848;52.216;5.616;2024-03-02T10:03:26;41.87;38.41;51.02;;
83034;Laerm;72848;52.216;5.616;2024-03-02T10:05:54;53.31;37.18;71.77;;
83034;Laerm;72848;52.216;5.616;2024-03-02T10:08:23;40.69;37.00;55.30;;
83034;Laerm;72848;52.216;5.616;2024-03-02T10:10:52;42.26;36.93;61.07;;
83034;Laerm;72848;52.216;5.616;2024-03-02T10:13:23;50.00;37.82;67.46;;
83034;Laerm;72848;52.216;5.616;2024-03-02T10:15:53;42.26;37.32;53.07;;
83034;Laerm;72848;52.216;5.616;2024-03-02T10:18:26;43.61;38.16;55.49;;
83034;Laerm;72848;52.216;5.616;2024-03-02T10:20:55;42.94;36.85;61.15;;
83034;Laerm;72848;52.216;5.616;2024-03-02T10:23:41;41.68;36.68;51.19;;
83034;Laerm;72848;52.216;5.616;2024-03-02T10:26:11;41.40;36.37;56.49;;
83034;Laerm;72848;52.216;5.616;2024-03-02T10:28:49;41.65;36.84;51.95;;
83034;Laerm;72848;52.216;5.616;2024-03-02T10:31:17;43.73;37.78;55.36;;
83034;Laerm;72848;52.216;5.616;2024-03-02T10:33:46;44.41;38.65;51.75;;
83034;Laerm;72848;52.216;5.616;2024-03-02T10:36:15;42.68;36.79;49.54;;
83034;Laerm;72848;52.216;5.616;2024-03-02T10:38:44;43.13;38.23;48.55;;
83034;Laerm;72848;52.216;5.616;2024-03-02T10:41:12;46.85;38.08;66.21;;
83034;Laerm;72848;52.216;5.616;2024-03-02T10:43:45;45.94;38.34;60.19;;
83034;Laerm;72848;52.216;5.616;2024-03-02T10:46:17;45.70;37.86;59.73;;
83034;Laerm;72848;52.216;5.616;2024-03-02T10:48:47;45.62;38.42;61.65;;
83034;Laerm;72848;52.216;5.616;2024-03-02T10:51:16;49.18;39.22;62.82;;
83034;Laerm;72848;52.216;5.616;2024-03-02T10:53:44;48.21;39.43;61.89;;
83034;Laerm;72848;52.216;5.616;2024-03-02T10:56:14;43.51;36.85;64.78;;
83034;Laerm;72848;52.216;5.616;2024-03-02T10:58:44;42.27;37.42;49.91;;
83034;Laerm;72848;52.216;5.616;2024-03-02T11:01:17;45.41;38.00;54.16;;
83034;Laerm;72848;52.216;5.616;2024-03-02T11:03:46;42.52;37.03;56.48;;
83034;Laerm;72848;52.216;5.616;2024-03-02T11:06:16;42.48;35.99;51.86;;
83034;Laerm;72848;52.216;5.616;2024-03-02T11:08:45;40.74;37.26;44.93;;
83034;Laerm;72848;52.216;5.616;2024-03-02T11:11:15;40.63;36.00;49.15;;
83034;Laerm;72848;52.216;5.616;2024-03-02T11:13:49;46.99;36.58;60.22;;
83034;Laerm;72848;52.216;5.616;2024-03-02T11:16:23;43.05;38.09;54.06;;
83034;Laerm;72848;52.216;5.616;2024-03-02T11:18:55;41.37;35.58;53.76;;
83034;Laerm;72848;52.216;5.616;2024-03-02T11:21:25;44.44;35.63;67.49;;
83034;Laerm;72848;52.216;5.616;2024-03-02T11:23:53;38.84;35.47;43.77;;
83034;Laerm;72848;52.216;5.616;2024-03-02T11:26:22;39.14;35.69;49.14;;
83034;Laerm;72848;52.216;5.616;2024-03-02T11:28:51;44.33;35.85;67.17;;
83034;Laerm;72848;52.216;5.616;2024-03-02T11:31:22;43.19;36.14;60.83;;
83034;Laerm;72848;52.216;5.616;2024-03-02T11:33:50;41.95;36.10;49.87;;
83034;Laerm;72848;52.216;5.616;2024-03-02T11:36:19;39.89;33.68;49.40;;
83034;Laerm;72848;52.216;5.616;2024-03-02T11:38:48;40.65;36.11;48.95;;
83034;Laerm;72848;52.216;5.616;2024-03-02T11:41:17;46.49;35.91;65.61;;
83034;Laerm;72848;52.216;5.616;2024-03-02T11:43:47;44.98;34.96;59.95;;
83034;Laerm;72848;52.216;5.616;2024-03-02T11:46:15;51.54;38.12;66.54;;
83034;Laerm;72848;52.216;5.616;2024-03-02T11:48:46;51.75;38.86;67.84;;
83034;Laerm;72848;52.216;5.616;2024-03-02T11:51:15;40.39;35.57;57.44;;
83034;Laerm;72848;52.216;5.616;2024-03-02T11:53:44;40.32;36.53;51.90;;
83034;Laerm;72848;52.216;5.616;2024-03-02T11:56:13;43.75;34.59;58.93;;
83034;Laerm;72848;52.216;5.616;2024-03-02T11:58:42;40.50;34.73;59.87;;
83034;Laerm;72848;52.216;5.616;2024-03-02T12:01:11;39.01;34.73;49.10;;
83034;Laerm;72848;52.216;5.616;2024-03-02T12:03:39;38.44;34.49;44.45;;
83034;Laerm;72848;52.216;5.616;2024-03-02T12:06:10;40.57;35.44;58.63;;
83034;Laerm;72848;52.216;5.616;2024-03-02T12:08:39;40.97;34.00;63.46;;
83034;Laerm;72848;52.216;5.616;2024-03-02T12:11:09;41.05;36.08;62.29;;
83034;Laerm;72848;52.216;5.616;2024-03-02T12:13:40;39.78;34.48;47.49;;
83034;Laerm;72848;52.216;5.616;2024-03-02T12:16:09;43.87;36.67;62.10;;
83034;Laerm;72848;52.216;5.616;2024-03-02T12:18:37;40.41;33.87;58.07;;
83034;Laerm;72848;52.216;5.616;2024-03-02T12:21:05;51.30;34.11;65.88;;
83034;Laerm;72848;52.216;5.616;2024-03-02T12:23:37;49.42;35.56;62.50;;
83034;Laerm;72848;52.216;5.616;2024-03-02T12:26:05;44.96;35.30;60.68;;
83034;Laerm;72848;52.216;5.616;2024-03-02T12:28:34;41.35;34.67;51.26;;
83034;Laerm;72848;52.216;5.616;2024-03-02T12:31:03;41.09;35.28;55.63;;
83034;Laerm;72848;52.216;5.616;2024-03-02T12:33:32;37.91;34.60;44.55;;
83034;Laerm;72848;52.216;5.616;2024-03-02T12:36:00;39.84;34.34;50.94;;
83034;Laerm;72848;52.216;5.616;2024-03-02T12:38:30;42.52;35.73;66.58;;
83034;Laerm;72848;52.216;5.616;2024-03-02T12:41:02;38.79;34.31;53.00;;
83034;Laerm;72848;52.216;5.616;2024-03-02T12:43:30;39.61;34.76;54.74;;
83034;Laerm;72848;52.216;5.616;2024-03-02T12:45:59;40.92;36.85;48.53;;
83034;Laerm;72848;52.216;5.616;2024-03-02T12:48:27;42.72;35.58;52.31;;
83034;Laerm;72848;52.216;5.616;2024-03-02T12:50:56;44.37;39.36;53.60;;
83034;Laerm;72848;52.216;5.616;2024-03-02T12:53:24;41.13;37.59;47.80;;
83034;Laerm;72848;52.216;5.616;2024-03-02T12:55:53;40.91;36.85;49.41;;
83034;Laerm;72848;52.216;5.616;2024-03-02T12:58:24;43.29;36.85;52.14;;
83034;Laerm;72848;52.216;5.616;2024-03-02T13:01:05;41.31;36.23;48.57;;
83034;Laerm;72848;52.216;5.616;2024-03-02T13:03:35;42.36;36.75;52.56;;
83034;Laerm;72848;52.216;5.616;2024-03-02T13:06:04;42.56;37.23;51.39;;
83034;Laerm;72848;52.216;5.616;2024-03-02T13:08:32;41.24;37.30;48.08;;
83034;Laerm;72848;52.216;5.616;2024-03-02T13:11:01;40.00;36.06;47.89;;
83034;Laerm;72848;52.216;5.616;2024-03-02T13:13:33;43.84;37.02;60.75;;
83034;Laerm;72848;52.216;5.616;2024-03-02T13:16:01;43.57;36.79;60.61;;
83034;Laerm;72848;52.216;5.616;2024-03-02T13:18:30;39.21;35.66;46.72;;
83034;Laerm;72848;52.216;5.616;2024-03-02T13:20:58;42.02;37.37;47.38;;
83034;Laerm;72848;52.216;5.616;2024-03-02T13:23:27;42.57;37.10;52.93;;
83034;Laerm;72848;52.216;5.616;2024-03-02T13:25:55;41.54;36.19;46.95;;
83034;Laerm;72848;52.216;5.616;2024-03-02T13:28:24;43.52;37.27;63.50;;
83034;Laerm;72848;52.216;5.616;2024-03-02T13:30:55;44.76;36.22;65.46;;
83034;Laerm;72848;52.216;5.616;2024-03-02T13:33:23;47.39;37.64;60.40;;
83034;Laerm;72848;52.216;5.616;2024-03-02T13:35:52;43.61;38.28;53.84;;
83034;Laerm;72848;52.216;5.616;2024-03-02T13:38:21;42.63;37.17;52.84;;
83034;Laerm;72848;52.216;5.616;2024-03-02T13:40:49;50.08;36.01;69.68;;
83034;Laerm;72848;52.216;5.616;2024-03-02T13:43:18;48.51;36.51;68.47;;
83034;Laerm;72848;52.216;5.616;2024-03-02T13:45:46;42.59;34.83;55.00;;
83034;Laerm;72848;52.216;5.616;2024-03-02T13:48:17;47.51;35.75;64.94;;
83034;Laerm;72848;52.216;5.616;2024-03-02T13:50:45;46.23;36.11;58.45;;
83034;Laerm;72848;52.216;5.616;2024-03-02T13:53:14;39.03;34.01;48.29;;
83034;Laerm;72848;52.216;5.616;2024-03-02T13:55:42;41.22;35.66;58.62;;
83034;Laerm;72848;52.216;5.616;2024-03-02T13:58:11;40.63;34.97;57.55;;